Time;durP1;ratioP1;P1;durP2;ratioP2;P2;SDS_P1;SDS_P2;PMS_P1;PMS_P2;Temp;Humidity;BMP_temperature;BMP_pressure;BME280_temperature;BME280_humidity;BME280_pressure;Samples;Min_cycle;Max_cycle;Signal;HPM_P1;HPM_P2
2022/11/07 00:00:23;;;;;;;12.63;4.00;;;11.30;99.90;;;;;;4959862;28;37299;-78
2022/11/07 00:02:49;;;;;;;19.40;4.03;;;11.30;99.90;;;;;;4954251;28;38720;-80
2022/11/07 00:05:15;;;;;;;19.30;3.72;;;11.30;99.90;;;;;;4953939;28;38975;-78
2022/11/07 00:07:41;;;;;;;13.43;3.67;;;11.30;99.90;;;;;;4960110;28;39802;-80
2022/11/07 00:10:07;;;;;;;18.48;4.53;;;11.20;99.90;;;;;;4955681;28;38187;-81
2022/11/07 00:12:35;;;;;;;15.80;5.13;;;11.20;99.90;;;;;;4950469;28;36251;-81
2022/11/07 00:15:05;;;;;;;17.00;4.15;;;11.20;99.90;;;;;;4951598;28;39181;-81
2022/11/07 00:17:31;;;;;;;11.00;3.33;;;11.30;99.90;;;;;;4954175;28;48836;-81
2022/11/07 00:19:57;;;;;;;15.37;3.87;;;11.30;99.90;;;;;;4955231;28;36895;-81
2022/11/07 00:22:23;;;;;;;14.27;3.40;;;11.30;99.90;;;;;;4952548;28;37796;-81
2022/11/07 00:24:49;;;;;;;14.68;3.53;;;11.30;99.90;;;;;;4932159;28;37818;-81
2022/11/07 00:27:15;;;;;;;11.97;3.23;;;11.30;99.90;;;;;;4954816;28;37346;-81
2022/11/07 00:29:41;;;;;;;19.03;3.27;;;11.30;99.90;;;;;;4957827;28;37234;-81
2022/11/07 00:32:07;;;;;;;17.83;3.28;;;11.30;99.90;;;;;;4952258;28;36396;-81
2022/11/07 00:34:34;;;;;;;15.80;3.43;;;11.30;99.90;;;;;;4964739;28;37962;-81
2022/11/07 00:37:01;;;;;;;11.90;2.65;;;11.30;99.90;;;;;;4940275;28;37602;-82
2022/11/07 00:39:28;;;;;;;13.88;3.08;;;11.30;99.90;;;;;;4950232;28;37525;-81
2022/11/07 00:41:54;;;;;;;11.80;3.13;;;11.30;99.90;;;;;;4948645;28;36724;-81
2022/11/07 00:44:21;;;;;;;19.60;2.97;;;11.30;99.90;;;;;;4958321;28;38825;-80
2022/11/07 00:46:47;;;;;;;11.80;2.60;;;11.30;99.90;;;;;;4955853;28;38596;-81
2022/11/07 00:49:13;;;;;;;18.00;3.27;;;11.30;99.90;;;;;;4961758;28;38056;-81
2022/11/07 00:51:40;;;;;;;12.77;3.17;;;11.30;99.90;;;;;;4956733;28;38642;-81
2022/11/07 00:54:06;;;;;;;17.55;2.97;;;11.30;99.90;;;;;;4957974;28;39100;-81
2022/11/07 00:56:33;;;;;;;11.80;3.00;;;11.30;99.90;;;;;;4943012;28;37123;-80
2022/11/07 00:58:59;;;;;;;12.77;2.90;;;11.30;99.90;;;;;;4954564;28;36945;-81
2022/11/07 01:01:29;;;;;;;13.88;2.63;;;11.20;99.90;;;;;;4957155;28;36573;-80
2022/11/07 01:06:42;;;;;;;17.55;2.97;;;11.30;99.90;;;;;;4962840;28;49390;-81
2022/11/07 01:09:11;;;;;;;16.08;3.00;;;11.30;99.90;;;;;;4957498;28;38348;-80
2022/11/07 01:11:38;;;;;;;14.00;3.20;;;11.30;99.90;;;;;;4961000;28;38431;-80
2022/11/07 01:14:05;;;;;;;14.50;3.07;;;11.30;99.90;;;;;;4941193;28;38411;-80
2022/11/07 01:16:40;;;;;;;16.70;2.70;;;11.30;99.90;;;;;;4963111;28;39424;-81
2022/11/07 01:19:07;;;;;;;15.10;3.28;;;11.40;99.90;;;;;;4963105;28;38646;-79
2022/11/07 01:21:33;;;;;;;14.60;3.15;;;11.40;99.90;;;;;;4963233;28;38690;-81
2022/11/07 01:24:00;;;;;;;12.77;3.00;;;11.50;99.90;;;;;;4949056;28;38059;-81
2022/11/07 01:26:32;;;;;;;14.60;3.00;;;11.50;99.90;;;;;;4961511;28;39600;-81
2022/11/07 01:28:58;;;;;;;;;;;11.50;99.90;;;;;;4943150;28;38861;-80
2022/11/07 01:31:24;;;;;;;13.93;3.60;;;11.50;99.90;;;;;;4948332;28;35760;-80
2022/11/07 01:33:50;;;;;;;15.70;3.80;;;11.50;99.90;;;;;;4956190;28;40168;-81
2022/11/07 01:36:17;;;;;;;19.73;3.70;;;11.40;99.90;;;;;;4953607;28;39280;-81
2022/11/07 01:38:47;;;;;;;11.20;3.55;;;11.40;99.90;;;;;;4955677;28;37587;-81
2022/11/07 01:41:25;;;;;;;10.02;3.55;;;11.40;99.90;;;;;;4953036;28;37511;-81
2022/11/07 01:44:01;;;;;;;15.93;3.80;;;11.40;99.90;;;;;;4953929;28;37844;-80
2022/11/07 01:46:31;;;;;;;14.38;4.00;;;11.40;99.90;;;;;;4955345;28;38674;-79
2022/11/07 01:49:18;;;;;;;12.07;3.53;;;11.40;99.90;;;;;;4938585;28;37507;-80
2022/11/07 01:51:47;;;;;;;13.17;3.07;;;11.40;99.90;;;;;;4960762;28;46904;-80
2022/11/07 01:54:17;;;;;;;11.53;3.33;;;11.40;99.90;;;;;;4953465;28;42458;-80
2022/11/07 01:56:44;;;;;;;11.98;3.30;;;11.40;99.90;;;;;;4960383;28;38373;-79
2022/11/07 01:59:14;;;;;;;13.95;3.83;;;11.50;99.90;;;;;;4950054;28;36844;-81
2022/11/07 02:04:11;;;;;;;16.33;3.60;;;11.50;99.90;;;;;;4937630;28;20044;-76
2022/11/07 02:06:46;;;;;;;10.88;3.17;;;11.60;99.90;;;;;;4950600;28;39626;-76
2022/11/07 02:09:13;;;;;;;12.67;3.10;;;11.50;99.90;;;;;;4947114;28;38431;-76
2022/11/07 02:11:40;;;;;;;15.23;3.30;;;11.50;99.90;;;;;;4954523;28;37150;-78
2022/11/07 02:14:07;;;;;;;13.57;3.43;;;11.50;99.90;;;;;;4944878;28;39236;-78
2022/11/07 02:16:36;;;;;;;17.23;3.43;;;11.50;99.90;;;;;;4945017;28;37299;-77
2022/11/07 02:19:07;;;;;;;18.50;3.00;;;11.50;99.90;;;;;;4949899;28;37106;-78
2022/11/07 02:22:06;;;;;;;15.80;3.87;;;11.50;99.90;;;;;;4951217;28;36550;-77
2022/11/07 02:24:34;;;;;;;14.43;3.30;;;11.60;99.90;;;;;;4962722;28;46942;-77
2022/11/07 02:27:07;;;;;;;14.57;3.33;;;11.60;99.90;;;;;;4957381;28;39239;-77
2022/11/07 02:29:37;;;;;;;13.52;3.00;;;11.60;99.90;;;;;;4956848;28;48135;-78
2022/11/07 02:32:07;;;;;;;15.07;2.75;;;11.50;99.90;;;;;;4950714;28;36967;-77
2022/11/07 02:34:33;;;;;;;19.23;4.18;;;11.50;99.90;;;;;;4956163;28;39151;-77
2022/11/07 02:37:04;;;;;;;15.95;3.20;;;11.40;99.90;;;;;;4952339;28;39414;-77
2022/11/07 02:39:31;;;;;;;17.70;3.35;;;11.50;99.90;;;;;;4956348;28;48823;-78
2022/11/07 02:41:58;;;;;;;8.55;2.47;;;11.50;99.90;;;;;;4948799;28;35844;-80
2022/11/07 02:44:25;;;;;;;17.13;3.08;;;11.50;99.90;;;;;;4947866;28;37445;-78
2022/11/07 02:46:52;;;;;;;15.57;2.75;;;11.50;99.90;;;;;;4955446;28;37276;-77
2022/11/07 02:49:19;;;;;;;12.60;2.80;;;11.50;99.90;;;;;;4955459;28;38683;-78
2022/11/07 02:51:45;;;;;;;18.83;2.70;;;11.50;99.90;;;;;;4952557;28;36966;-78
2022/11/07 02:54:11;;;;;;;11.30;2.55;;;11.40;99.90;;;;;;4956580;28;38878;-78
2022/11/07 02:56:37;;;;;;;19.77;2.53;;;11.50;99.90;;;;;;4950235;28;39342;-78
2022/11/07 02:59:03;;;;;;;13.55;2.97;;;11.50;99.90;;;;;;4952162;28;38763;-79
2022/11/07 03:01:29;;;;;;;12.65;2.17;;;11.60;99.90;;;;;;4961721;28;46643;-79
2022/11/07 03:03:55;;;;;;;14.10;2.70;;;11.60;99.90;;;;;;4968162;28;38221;-79
2022/11/07 03:06:23;;;;;;;12.27;2.70;;;11.50;99.90;;;;;;4976424;28;38370;-79
2022/11/07 03:08:50;;;;;;;15.23;3.17;;;11.50;99.90;;;;;;4975260;28;37946;-79
2022/11/07 03:11:18;;;;;;;16.27;2.90;;;11.40;99.90;;;;;;4966726;28;36070;-78
2022/11/07 03:13:48;;;;;;;15.67;2.93;;;11.40;99.90;;;;;;4969501;28;37724;-79
2022/11/07 03:16:16;;;;;;;14.38;2.85;;;11.40;99.90;;;;;;4966874;28;38492;-78
2022/11/07 03:18:42;;;;;;;22.27;3.33;;;11.40;99.90;;;;;;4979462;28;39204;-78
2022/11/07 03:21:09;;;;;;;17.07;2.90;;;11.40;99.90;;;;;;4969728;28;37420;-77
2022/11/07 03:23:35;;;;;;;24.58;4.07;;;11.40;99.90;;;;;;4966488;28;37585;-79
2022/11/07 03:26:02;;;;;;;19.00;3.40;;;11.40;99.90;;;;;;4974202;28;38443;-78
2022/11/07 03:28:29;;;;;;;17.27;3.25;;;11.40;99.90;;;;;;4969396;28;39272;-78
2022/11/07 03:30:59;;;;;;;12.85;3.40;;;11.40;99.90;;;;;;4968882;28;37327;-78
2022/11/07 03:33:29;;;;;;;15.10;3.20;;;11.40;99.90;;;;;;4968490;28;38659;-79
2022/11/07 03:35:55;;;;;;;15.45;2.78;;;11.40;99.90;;;;;;4979963;28;39020;-78
2022/11/07 03:38:22;;;;;;;18.38;3.17;;;11.40;99.90;;;;;;4970322;28;38948;-77
2022/11/07 03:40:48;;;;;;;15.45;3.15;;;11.40;99.90;;;;;;4970390;28;36182;-77
2022/11/07 03:43:14;;;;;;;17.13;3.13;;;11.40;99.90;;;;;;4968998;28;38621;-77
2022/11/07 03:45:41;;;;;;;17.95;3.13;;;11.40;99.90;;;;;;4966621;28;38417;-79
2022/11/07 03:48:07;;;;;;;20.70;3.03;;;11.40;99.90;;;;;;4971044;28;38160;-79
2022/11/07 03:50:33;;;;;;;14.83;2.87;;;11.40;99.90;;;;;;4971036;28;37576;-78
2022/11/07 03:52:59;;;;;;;19.00;3.00;;;11.40;99.90;;;;;;4971306;28;38905;-79
2022/11/07 03:55:25;;;;;;;20.02;3.28;;;11.40;99.90;;;;;;4968622;28;39451;-79
2022/11/07 03:57:51;;;;;;;20.95;3.53;;;11.40;99.90;;;;;;4969820;28;38497;-78
2022/11/07 04:00:18;;;;;;;21.20;3.07;;;11.50;99.90;;;;;;4971194;28;36925;-78
2022/11/07 04:02:44;;;;;;;25.00;3.55;;;11.40;99.90;;;;;;4968619;28;39028;-77
2022/11/07 04:05:11;;;;;;;16.80;3.05;;;11.40;99.90;;;;;;4967588;28;37892;-78
2022/11/07 04:07:37;;;;;;;19.35;2.90;;;11.40;99.90;;;;;;4966598;28;38035;-77
2022/11/07 04:10:03;;;;;;;24.92;3.30;;;11.40;99.90;;;;;;4968847;28;37389;-77
2022/11/07 04:17:59;;;;;;;12.80;3.17;;;11.40;99.90;;;;;;4974876;28;38620;-77
2022/11/07 04:20:26;;;;;;;11.20;2.70;;;11.40;99.90;;;;;;4957195;28;35402;-77
2022/11/07 04:22:52;;;;;;;19.33;3.13;;;11.40;99.90;;;;;;4974990;28;39215;-78
2022/11/07 04:27:41;;;;;;;13.43;2.53;;;11.40;99.90;;;;;;4971696;28;39814;-77
2022/11/07 04:28:04;;;;;;;21.30;3.25;;;11.40;99.90;;;;;;4983413;28;39732;-78
2022/11/07 04:30:31;;;;;;;17.83;3.38;;;11.40;99.90;;;;;;4968017;28;37163;-77
2022/11/07 04:32:59;;;;;;;15.80;2.63;;;11.50;99.90;;;;;;4955341;28;37798;-77
2022/11/07 04:35:28;;;;;;;23.95;3.47;;;11.40;99.90;;;;;;4978175;28;39501;-78
2022/11/07 04:37:55;;;;;;;13.77;2.85;;;11.50;99.90;;;;;;4977023;28;38159;-78
2022/11/07 04:40:21;;;;;;;16.48;2.97;;;11.50;99.90;;;;;;4975439;28;37714;-76
2022/11/07 04:42:47;;;;;;;20.95;2.88;;;11.50;99.90;;;;;;4972171;28;39750;-77
2022/11/07 04:45:14;;;;;;;20.38;3.58;;;11.50;99.90;;;;;;4973382;28;38674;-77
2022/11/07 04:47:41;;;;;;;17.98;3.53;;;11.60;99.90;;;;;;4974423;28;38250;-79
2022/11/07 04:50:11;;;;;;;17.38;3.67;;;11.60;99.90;;;;;;4973952;28;37140;-77
2022/11/07 04:52:43;;;;;;;17.55;3.78;;;11.60;99.90;;;;;;4958604;28;37982;-77
2022/11/07 04:55:19;;;;;;;15.48;3.33;;;11.60;99.90;;;;;;4945807;28;40999;-76
2022/11/07 04:57:46;;;;;;;27.30;3.88;;;11.60;99.90;;;;;;4951700;28;36344;-77
2022/11/07 05:00:13;;;;;;;15.23;3.92;;;11.60;99.90;;;;;;4972980;28;37611;-77
2022/11/07 05:02:39;;;;;;;17.00;3.50;;;11.60;99.90;;;;;;4980409;28;38143;-77
2022/11/07 05:05:08;;;;;;;23.40;4.53;;;11.60;99.90;;;;;;4964993;28;39494;-76
2022/11/07 05:07:34;;;;;;;21.88;4.07;;;11.50;99.90;;;;;;4973357;28;37917;-77
2022/11/07 05:10:03;;;;;;;20.60;4.50;;;11.50;99.90;;;;;;4968046;28;36606;-77
2022/11/07 05:12:29;;;;;;;22.88;3.80;;;11.50;99.90;;;;;;4968708;28;47321;-78
2022/11/07 05:14:55;;;;;;;24.48;4.10;;;11.40;99.90;;;;;;4956417;28;37390;-78
2022/11/07 05:17:22;;;;;;;29.95;5.13;;;11.40;99.90;;;;;;4971503;28;37818;-77
2022/11/07 05:19:48;;;;;;;21.42;4.15;;;11.40;99.90;;;;;;4952540;28;35701;-77
2022/11/07 05:24:59;;;;;;;23.42;4.53;;;11.50;99.90;;;;;;4969441;28;39281;-75
2022/11/07 05:27:25;;;;;;;23.55;5.07;;;11.40;99.90;;;;;;4968625;28;36869;-77
2022/11/07 05:29:52;;;;;;;22.85;4.47;;;11.40;99.90;;;;;;4969676;28;36769;-77
2022/11/07 05:32:18;;;;;;;21.48;4.78;;;11.50;99.90;;;;;;4959926;28;38389;-77
2022/11/07 05:34:44;;;;;;;27.67;4.60;;;11.50;99.90;;;;;;4952943;28;37341;-76
2022/11/07 05:37:12;;;;;;;28.67;5.53;;;11.50;99.90;;;;;;4960105;28;37055;-77
2022/11/07 05:39:38;;;;;;;27.75;4.57;;;11.50;99.90;;;;;;4969612;28;37447;-75
2022/11/07 05:42:04;;;;;;;26.05;4.82;;;11.50;99.90;;;;;;4970928;28;40195;-75
2022/11/07 05:44:30;;;;;;;18.30;4.25;;;11.50;99.90;;;;;;4974473;28;38203;-76
2022/11/07 05:46:57;;;;;;;21.60;5.25;;;11.50;99.90;;;;;;4959767;28;38362;-77
2022/11/07 05:49:24;;;;;;;25.90;5.40;;;11.50;99.90;;;;;;4972709;28;37109;-77
2022/11/07 05:51:51;;;;;;;18.27;4.30;;;11.50;99.90;;;;;;4974354;28;39321;-76
2022/11/07 05:54:17;;;;;;;21.33;4.60;;;11.60;99.90;;;;;;4952689;28;38108;-75
2022/11/07 05:56:43;;;;;;;22.60;4.47;;;11.60;99.90;;;;;;4970669;28;37268;-77
2022/11/07 05:59:09;;;;;;;20.55;4.05;;;11.60;99.90;;;;;;4956551;28;37288;-76
2022/11/07 06:01:36;;;;;;;27.90;3.78;;;11.70;99.90;;;;;;4972569;28;39287;-75
2022/11/07 06:04:04;;;;;;;24.08;4.75;;;11.70;99.90;;;;;;4975065;28;37076;-78
2022/11/07 06:06:30;;;;;;;21.15;4.07;;;11.70;99.90;;;;;;4976390;28;37979;-76
2022/11/07 06:08:57;;;;;;;20.20;4.22;;;11.70;99.90;;;;;;4971830;28;39458;-75
2022/11/07 06:11:24;;;;;;;18.13;4.30;;;11.70;99.90;;;;;;4969998;28;37563;-76
2022/11/07 06:13:53;;;;;;;24.27;4.70;;;11.70;99.90;;;;;;4975615;28;38652;-74
2022/11/07 06:16:19;;;;;;;17.35;3.47;;;11.70;99.90;;;;;;4955210;28;37951;-76
2022/11/07 06:18:45;;;;;;;24.83;3.60;;;11.80;99.90;;;;;;4973343;28;37474;-76
2022/11/07 06:21:12;;;;;;;20.27;3.90;;;11.70;99.90;;;;;;4967711;28;38953;-74
2022/11/07 06:23:38;;;;;;;16.70;3.33;;;11.70;99.90;;;;;;4975241;28;38454;-74
2022/11/07 06:26:05;;;;;;;16.25;3.50;;;11.70;99.90;;;;;;4958445;28;39657;-75
2022/11/07 06:28:31;;;;;;;22.67;4.00;;;11.70;99.90;;;;;;4975558;28;36755;-75
2022/11/07 06:31:01;;;;;;;23.05;3.85;;;11.70;99.90;;;;;;4962832;28;37626;-74
2022/11/07 06:33:28;;;;;;;18.77;3.90;;;11.70;99.90;;;;;;4971514;28;38951;-74
2022/11/07 06:35:55;;;;;;;28.35;4.25;;;11.70;99.90;;;;;;4959677;28;36598;-74
2022/11/07 06:38:21;;;;;;;23.15;4.72;;;11.60;99.90;;;;;;4955643;28;35782;-74
2022/11/07 06:40:47;;;;;;;20.15;3.83;;;11.60;99.90;;;;;;4956296;28;37561;-75
2022/11/07 06:43:18;;;;;;;15.50;3.20;;;11.60;99.90;;;;;;4974093;28;38437;-75
2022/11/07 06:45:45;;;;;;;18.53;3.33;;;11.60;99.90;;;;;;4971664;28;39040;-75
2022/11/07 06:48:12;;;;;;;25.93;4.53;;;11.60;99.90;;;;;;4964857;28;37230;-73
2022/11/07 06:50:38;;;;;;;20.90;4.27;;;11.60;99.90;;;;;;4968941;28;39056;-74
2022/11/07 06:53:07;;;;;;;19.20;3.72;;;11.70;99.90;;;;;;4967884;28;37011;-73
2022/11/07 06:55:35;;;;;;;22.80;3.65;;;11.70;99.90;;;;;;4954948;28;39591;-74
2022/11/07 06:58:02;;;;;;;20.70;3.47;;;11.70;99.90;;;;;;4976511;28;38397;-74
2022/11/07 07:00:30;;;;;;;17.52;3.75;;;11.70;99.90;;;;;;4975253;28;39606;-73
2022/11/07 07:02:56;;;;;;;20.65;3.47;;;11.70;99.90;;;;;;4978245;28;36957;-74
2022/11/07 07:05:22;;;;;;;22.05;3.75;;;11.70;99.90;;;;;;4977226;28;39273;-75
2022/11/07 07:07:48;;;;;;;18.85;3.80;;;11.70;99.90;;;;;;4975913;28;36030;-74
2022/11/07 07:10:18;;;;;;;17.15;3.35;;;11.70;99.90;;;;;;4978375;28;39095;-74
2022/11/07 07:12:44;;;;;;;21.42;3.60;;;11.70;99.90;;;;;;4981368;28;37469;-74
2022/11/07 07:15:10;;;;;;;25.10;3.73;;;11.70;99.90;;;;;;4974794;28;37045;-74
2022/11/07 07:17:36;;;;;;;16.70;4.00;;;11.80;99.90;;;;;;4968788;28;37185;-75
2022/11/07 07:20:04;;;;;;;21.95;3.35;;;11.80;99.90;;;;;;4974723;28;37589;-75
2022/11/07 07:22:30;;;;;;;17.67;2.75;;;11.80;99.90;;;;;;4967925;28;47004;-74
2022/11/07 07:24:56;;;;;;;20.90;2.92;;;11.80;99.90;;;;;;4977272;28;37562;-74
2022/11/07 07:27:22;;;;;;;22.20;4.00;;;11.90;99.90;;;;;;4974756;28;36909;-75
2022/11/07 07:29:48;;;;;;;19.90;4.03;;;11.90;99.90;;;;;;4983331;28;38876;-74
2022/11/07 07:32:17;;;;;;;16.70;3.25;;;12.00;99.90;;;;;;4978560;28;38781;-75
2022/11/07 07:34:44;;;;;;;13.30;3.00;;;11.90;99.90;;;;;;4973332;28;38185;-74
2022/11/07 07:37:10;;;;;;;24.55;3.42;;;12.00;99.90;;;;;;4982682;28;35928;-74
2022/11/07 07:39:36;;;;;;;18.58;2.92;;;12.00;99.90;;;;;;4981706;28;39445;-73
2022/11/07 07:42:05;;;;;;;18.38;3.47;;;12.00;99.90;;;;;;4980332;28;39606;-75
2022/11/07 07:44:31;;;;;;;15.75;3.33;;;12.00;99.90;;;;;;4977541;28;37281;-74
2022/11/07 07:46:57;;;;;;;17.40;3.88;;;12.00;99.90;;;;;;4979033;28;37015;-74
2022/11/07 07:49:23;;;;;;;18.05;2.95;;;12.10;99.90;;;;;;4981215;28;39050;-75
2022/11/07 07:51:49;;;;;;;21.67;3.67;;;12.10;99.90;;;;;;4986515;28;39210;-76
2022/11/07 07:54:15;;;;;;;17.60;3.10;;;12.10;99.90;;;;;;4976411;28;37221;-76
2022/11/07 07:56:41;;;;;;;24.95;4.03;;;12.10;99.90;;;;;;4972442;28;37299;-76
2022/11/07 07:59:08;;;;;;;16.30;3.65;;;12.20;99.90;;;;;;4976651;28;38969;-79
2022/11/07 08:01:34;;;;;;;16.27;3.47;;;12.20;99.90;;;;;;4981194;28;38261;-77
2022/11/07 08:04:00;;;;;;;25.55;3.30;;;12.30;99.90;;;;;;4965732;28;37613;-75
2022/11/07 08:06:26;;;;;;;21.48;4.00;;;12.30;99.90;;;;;;4982168;28;36940;-74
2022/11/07 08:08:52;;;;;;;20.30;3.65;;;12.40;99.90;;;;;;4965385;28;37699;-76
2022/11/07 08:11:18;;;;;;;16.85;4.00;;;12.50;99.90;;;;;;4970889;28;39253;-75
2022/11/07 08:13:45;;;;;;;19.55;3.17;;;12.50;99.90;;;;;;4981203;28;38906;-73
2022/11/07 08:16:11;;;;;;;15.88;3.90;;;12.50;99.90;;;;;;4974761;28;35938;-74
2022/11/07 08:18:40;;;;;;;16.73;4.28;;;12.50;99.90;;;;;;4970800;28;38665;-75
2022/11/07 08:21:07;;;;;;;16.58;4.00;;;12.50;99.90;;;;;;4967606;28;38260;-75
2022/11/07 08:23:34;;;;;;;25.20;4.43;;;12.60;99.90;;;;;;4969228;28;37874;-73
2022/11/07 08:26:01;;;;;;;21.98;3.67;;;12.60;99.90;;;;;;4971443;28;36023;-74
2022/11/07 08:28:31;;;;;;;21.80;4.25;;;12.60;99.90;;;;;;4971078;28;40185;-74
2022/11/07 08:31:09;;;;;;;18.73;3.60;;;12.60;99.90;;;;;;4954114;28;37941;-75
2022/11/07 08:33:35;;;;;;;12.48;3.20;;;12.60;99.90;;;;;;4956948;28;47360;-74
2022/11/07 08:36:03;;;;;;;20.88;3.33;;;12.70;99.90;;;;;;4972976;28;37122;-75
2022/11/07 08:38:31;;;;;;;17.30;3.47;;;12.70;99.90;;;;;;4971536;28;35418;-75
2022/11/07 08:40:59;;;;;;;17.20;3.80;;;12.70;99.90;;;;;;4981036;28;38702;-75
2022/11/07 08:43:25;;;;;;;15.43;3.53;;;12.70;99.90;;;;;;4959672;28;36992;-75
2022/11/07 08:45:52;;;;;;;19.00;3.00;;;12.70;99.90;;;;;;4979847;28;38062;-76
2022/11/07 08:48:19;;;;;;;17.35;3.50;;;12.70;99.90;;;;;;4981440;28;39566;-77
2022/11/07 08:50:49;;;;;;;16.38;3.38;;;12.70;99.90;;;;;;4988009;28;37360;-76
2022/11/07 08:53:15;;;;;;;17.98;4.65;;;12.80;99.90;;;;;;4976726;28;38145;-74
2022/11/07 08:55:41;;;;;;;12.63;3.00;;;12.80;99.90;;;;;;4982669;28;37415;-75
2022/11/07 08:58:08;;;;;;;18.95;4.20;;;12.80;99.90;;;;;;4987171;28;38825;-76
2022/11/07 09:00:34;;;;;;;13.70;3.28;;;12.80;99.90;;;;;;4976116;28;38335;-75
2022/11/07 09:03:06;;;;;;;17.50;3.53;;;12.80;99.90;;;;;;4982479;28;38262;-75
2022/11/07 09:05:33;;;;;;;21.23;3.72;;;12.80;99.90;;;;;;4977024;28;48814;-74
2022/11/07 09:07:59;;;;;;;18.15;3.40;;;12.70;99.90;;;;;;4977194;28;38735;-75
2022/11/07 09:10:26;;;;;;;21.52;4.07;;;12.70;99.90;;;;;;4967869;28;37998;-74
2022/11/07 09:12:52;;;;;;;21.40;4.30;;;12.60;99.90;;;;;;4959089;28;38233;-75
2022/11/07 09:15:19;;;;;;;21.67;3.78;;;12.60;99.90;;;;;;4975697;28;37793;-74
2022/11/07 09:17:45;;;;;;;16.48;3.67;;;12.50;99.90;;;;;;4979756;28;38115;-75
2022/11/07 09:20:13;;;;;;;25.15;4.55;;;12.60;99.90;;;;;;4973024;28;38799;-74
2022/11/07 09:22:39;;;;;;;16.48;3.30;;;12.60;99.90;;;;;;4973781;28;38503;-75
2022/11/07 09:25:06;;;;;;;20.63;3.70;;;12.60;99.90;;;;;;4973838;28;37075;-74
2022/11/07 09:27:32;;;;;;;17.08;4.20;;;12.60;99.90;;;;;;4986703;28;38405;-74
2022/11/07 09:29:58;;;;;;;19.13;4.22;;;12.70;99.90;;;;;;4960872;28;39099;-74
2022/11/07 09:32:25;;;;;;;24.13;3.55;;;12.70;99.90;;;;;;4969388;28;37074;-74
2022/11/07 09:34:51;;;;;;;21.45;3.83;;;12.70;99.90;;;;;;4981902;28;37614;-75
2022/11/07 09:37:20;;;;;;;13.65;3.22;;;12.70;99.90;;;;;;4981806;28;37576;-75
2022/11/07 09:39:47;;;;;;;16.02;4.22;;;12.80;99.90;;;;;;4987746;28;38777;-75
2022/11/07 09:42:36;;;;;;;15.75;3.80;;;12.80;99.90;;;;;;4983302;28;38969;-75
2022/11/07 09:45:03;;;;;;;13.90;3.45;;;12.80;99.90;;;;;;4971804;28;38003;-74
2022/11/07 09:47:36;;;;;;;17.52;3.17;;;12.90;99.90;;;;;;4973293;28;38503;-74
2022/11/07 09:50:27;;;;;;;15.00;3.47;;;13.00;99.90;;;;;;4953921;28;38727;-73
2022/11/07 09:53:06;;;;;;;14.05;3.58;;;13.00;99.90;;;;;;4972359;28;48832;-74
2022/11/07 09:55:40;;;;;;;17.67;3.47;;;13.00;99.90;;;;;;4975679;28;48662;-73
2022/11/07 09:58:20;;;;;;;17.08;3.22;;;12.90;99.90;;;;;;4972298;28;38984;-73
2022/11/07 10:00:46;;;;;;;20.50;3.80;;;12.90;99.90;;;;;;4969826;28;38460;-75
2022/11/07 10:03:13;;;;;;;17.20;2.85;;;13.00;99.90;;;;;;4967127;28;38158;-74
2022/11/07 10:05:47;;;;;;;16.67;3.45;;;13.00;99.90;;;;;;4973567;28;37044;-75
2022/11/07 10:08:39;;;;;;;17.92;3.33;;;13.10;99.90;;;;;;4965122;28;38941;-74
2022/11/07 10:11:33;;;;;;;15.07;2.85;;;13.10;99.90;;;;;;4952553;28;37629;-74
2022/11/07 10:14:14;;;;;;;17.15;3.00;;;13.30;99.90;;;;;;4970638;28;38052;-73
2022/11/07 10:16:51;;;;;;;21.73;3.10;;;13.40;99.90;;;;;;4969390;28;48250;-74
2022/11/07 10:19:26;;;;;;;19.70;3.63;;;13.30;99.90;;;;;;4970748;28;37669;-74
2022/11/07 10:22:10;;;;;;;13.95;2.70;;;13.40;99.90;;;;;;4969516;28;38632;-74
2022/11/07 10:24:51;;;;;;;21.63;4.72;;;13.40;99.90;;;;;;4974306;28;48767;-74
2022/11/07 10:27:20;;;;;;;19.80;3.50;;;13.50;99.90;;;;;;4965195;28;36923;-73
2022/11/07 10:29:53;;;;;;;15.25;3.20;;;13.50;99.90;;;;;;4969132;28;39540;-74
2022/11/07 10:32:28;;;;;;;19.45;3.65;;;13.50;99.90;;;;;;4959934;28;37452;-74
2022/11/07 10:34:59;;;;;;;21.80;3.42;;;13.50;99.90;;;;;;4969898;28;38637;-75
2022/11/07 10:37:25;;;;;;;15.65;3.97;;;13.60;99.90;;;;;;4970495;28;37421;-74
2022/11/07 10:39:51;;;;;;;15.02;3.53;;;13.60;99.90;;;;;;4975159;28;39291;-74
2022/11/07 10:42:24;;;;;;;17.65;3.85;;;13.60;99.90;;;;;;4972405;28;38149;-74
2022/11/07 10:44:52;;;;;;;20.38;3.05;;;13.50;99.90;;;;;;4966629;28;37017;-75
2022/11/07 10:47:24;;;;;;;15.32;2.58;;;13.60;99.90;;;;;;4970534;28;37834;-74
2022/11/07 10:50:00;;;;;;;16.73;2.85;;;13.70;99.90;;;;;;4971279;28;37338;-73
2022/11/07 10:52:27;;;;;;;14.43;3.17;;;13.70;99.90;;;;;;4971411;28;39075;-73
2022/11/07 10:55:14;;;;;;;19.42;3.55;;;13.80;99.90;;;;;;4955348;28;36521;-73
2022/11/07 10:57:41;;;;;;;14.13;3.78;;;13.90;99.90;;;;;;4969886;28;47155;-73
2022/11/07 11:00:40;;;;;;;20.08;3.30;;;13.80;99.90;;;;;;4974724;28;38996;-73
2022/11/07 11:03:25;;;;;;;22.38;3.25;;;13.80;99.90;;;;;;4924695;28;48511;-73
2022/11/07 11:05:51;;;;;;;22.20;3.50;;;13.80;99.90;;;;;;4996990;28;37325;-72
2022/11/07 11:08:19;;;;;;;18.17;3.13;;;13.90;99.90;;;;;;4984827;28;37530;-73
2022/11/07 11:10:47;;;;;;;19.40;2.90;;;13.90;99.90;;;;;;4999578;28;38034;-72
2022/11/07 11:13:33;;;;;;;18.95;3.38;;;13.90;99.90;;;;;;5007763;28;37663;-74
2022/11/07 11:16:10;;;;;;;14.80;3.30;;;13.90;99.90;;;;;;4989065;28;38185;-74
2022/11/07 11:18:36;;;;;;;16.42;3.58;;;14.00;99.90;;;;;;5000835;28;47256;-74
2022/11/07 11:21:05;;;;;;;14.15;2.97;;;14.10;99.90;;;;;;5005956;28;38858;-74
2022/11/07 11:23:36;;;;;;;21.23;3.75;;;14.10;99.90;;;;;;4985083;28;49444;-74
2022/11/07 11:26:12;;;;;;;20.70;3.47;;;14.20;99.90;;;;;;4989780;28;37654;-74
2022/11/07 11:28:44;;;;;;;17.08;3.50;;;14.20;99.90;;;;;;4987842;28;48300;-74
2022/11/07 11:31:28;;;;;;;14.50;2.80;;;14.20;99.90;;;;;;4987657;28;39060;-76
2022/11/07 11:34:03;;;;;;;20.27;3.08;;;14.40;99.90;;;;;;4990363;28;37431;-74
2022/11/07 11:36:40;;;;;;;14.32;3.45;;;14.50;99.90;;;;;;4987310;28;47493;-75
2022/11/07 11:39:25;;;;;;;18.00;4.00;;;14.60;99.90;;;;;;4987265;28;37273;-71
2022/11/07 11:41:55;;;;;;;20.60;3.53;;;14.60;99.90;;;;;;5003401;28;37383;-72
2022/11/07 11:44:43;;;;;;;18.77;4.03;;;14.60;99.90;;;;;;4987346;28;36476;-73
2022/11/07 11:47:22;;;;;;;22.90;4.40;;;14.60;99.90;;;;;;4985220;28;35620;-73
2022/11/07 11:49:59;;;;;;;16.45;2.75;;;14.60;99.90;;;;;;5002699;28;37165;-72
2022/11/07 11:52:27;;;;;;;19.88;4.05;;;14.60;99.90;;;;;;4979997;28;37889;-73
2022/11/07 11:54:56;;;;;;;18.15;3.40;;;14.60;99.90;;;;;;5001940;28;39292;-74
2022/11/07 11:57:28;;;;;;;17.85;2.55;;;14.60;99.90;;;;;;5001412;28;37438;-73
2022/11/07 12:00:03;;;;;;;15.27;2.80;;;14.60;99.90;;;;;;4986785;28;36997;-72
2022/11/07 12:03:10;;;;;;;17.27;3.20;;;14.60;99.90;;;;;;4979622;28;38888;-73
2022/11/07 12:06:01;;;;;;;12.00;2.25;;;14.50;99.90;;;;;;4964333;28;48495;-74
2022/11/07 12:08:41;;;;;;;18.10;3.38;;;14.50;99.90;;;;;;4964576;28;38709;-72
2022/11/07 12:11:37;;;;;;;19.85;3.42;;;14.40;99.90;;;;;;4964530;28;37330;-72
2022/11/07 12:14:06;;;;;;;12.93;2.97;;;14.40;99.90;;;;;;4944645;28;38185;-73
2022/11/07 12:16:39;;;;;;;16.85;3.03;;;14.40;99.90;;;;;;4950603;28;38142;-73
2022/11/07 12:19:33;;;;;;;15.40;3.42;;;14.40;99.90;;;;;;4962018;28;38915;-73
2022/11/07 12:22:40;;;;;;;21.90;3.70;;;14.40;99.90;;;;;;4968673;28;37150;-73
2022/11/07 12:25:33;;;;;;;14.55;3.30;;;14.40;99.90;;;;;;4963628;28;48086;-72
2022/11/07 12:28:03;;;;;;;17.05;3.08;;;14.40;99.90;;;;;;4952722;28;38286;-73
2022/11/07 12:30:39;;;;;;;14.65;3.03;;;14.30;99.90;;;;;;4970009;28;46983;-74
2022/11/07 12:33:39;;;;;;;16.65;3.50;;;14.30;99.90;;;;;;4977685;28;39309;-75
2022/11/07 12:36:11;;;;;;;18.63;3.08;;;14.30;99.90;;;;;;4926880;28;37546;-75
2022/11/07 12:38:49;;;;;;;17.38;3.53;;;14.20;99.90;;;;;;4967251;28;38364;-74
2022/11/07 12:41:19;;;;;;;18.50;3.17;;;14.20;99.90;;;;;;4969914;28;37843;-74
2022/11/07 12:43:59;;;;;;;12.43;2.83;;;14.30;99.90;;;;;;4973439;28;39259;-74
2022/11/07 12:46:49;;;;;;;12.13;2.95;;;14.40;99.90;;;;;;4973767;28;38193;-73
2022/11/07 12:49:38;;;;;;;14.35;3.50;;;14.50;99.90;;;;;;4981453;28;37648;-75
2022/11/07 12:52:30;;;;;;;18.67;3.05;;;14.60;99.90;;;;;;4970782;28;39961;-74
2022/11/07 12:55:01;;;;;;;13.50;2.60;;;14.60;99.90;;;;;;4968925;28;37006;-74
2022/11/07 12:57:32;;;;;;;15.52;3.53;;;14.60;99.90;;;;;;4969158;28;38414;-73
2022/11/07 13:00:06;;;;;;;12.65;2.85;;;14.60;99.90;;;;;;4953812;28;37329;-74
2022/11/07 13:03:02;;;;;;;16.33;3.55;;;14.60;99.90;;;;;;4966572;28;37945;-74
2022/11/07 13:05:34;;;;;;;15.10;3.00;;;14.60;99.90;;;;;;4972414;28;36291;-73